createdAt,value
2022-09-06T00:01:38.739Z,142.47
2022-09-06T00:04:05.681Z,120.50
2022-09-06T00:06:32.486Z,120.30
2022-09-06T00:08:59.749Z,107.10
2022-09-06T00:11:26.926Z,70.20
2022-09-06T00:13:53.786Z,51.30
2022-09-06T00:16:27.381Z,119.93
2022-09-06T00:18:57.167Z,180.90
2022-09-06T00:21:29.283Z,176.05
2022-09-06T00:23:56.403Z,164.88
2022-09-06T00:26:24.006Z,165.27
2022-09-06T00:28:50.856Z,175.50
2022-09-06T00:31:22.806Z,150.52
2022-09-06T00:33:50.645Z,29.60
2022-09-06T00:36:18.565Z,46.33
2022-09-06T00:38:45.475Z,23.55
2022-09-06T00:41:15.373Z,35.83
2022-09-06T00:43:42.564Z,50.28
2022-09-06T00:46:13.620Z,61.22
2022-09-06T00:48:41.507Z,41.88
2022-09-06T00:51:11.961Z,50.27
2022-09-06T00:53:39.222Z,50.10
2022-09-06T00:56:06.411Z,51.55
2022-09-06T00:58:35.103Z,51.42
2022-09-06T01:01:01.976Z,48.30
2022-09-06T01:03:28.734Z,41.28
2022-09-06T01:06:01.421Z,40.33
2022-09-06T01:08:47.063Z,53.30
2022-09-06T01:11:38.966Z,74.20
2022-09-06T01:14:18.231Z,55.63
2022-09-06T01:16:50.826Z,56.83
2022-09-06T01:19:44.055Z,85.30
2022-09-06T01:22:17.003Z,168.30
2022-09-06T01:24:52.741Z,167.60
2022-09-06T01:27:46.997Z,178.80
2022-09-06T01:30:16.782Z,157.85
2022-09-06T01:33:16.202Z,171.95
2022-09-06T01:36:02.939Z,100.93
2022-09-06T01:38:30.012Z,89.10
2022-09-06T01:40:56.960Z,95.93
2022-09-06T01:43:33.107Z,79.15
2022-09-06T01:46:27.639Z,71.15
2022-09-06T01:49:13.236Z,74.47
2022-09-06T01:52:06.754Z,97.95
2022-09-06T01:54:51.689Z,114.90
2022-09-06T01:57:39.680Z,117.93
2022-09-06T02:00:11.791Z,88.47
2022-09-06T02:02:58.328Z,104.50
2022-09-06T02:05:37.467Z,109.50
2022-09-06T02:08:11.222Z,165.80
2022-09-06T02:10:49.684Z,169.13
2022-09-06T02:13:19.754Z,120.28
2022-09-06T02:15:54.387Z,121.32
2022-09-06T02:18:52.139Z,129.50
2022-09-06T02:21:25.951Z,118.40
2022-09-06T02:23:55.862Z,130.93
2022-09-06T02:26:27.047Z,139.07
2022-09-06T02:28:54.419Z,150.07
2022-09-06T02:31:29.858Z,137.73
2022-09-06T02:33:57.146Z,145.05
2022-09-06T02:36:24.531Z,134.63
2022-09-06T02:38:51.598Z,124.97
2022-09-06T02:41:22.629Z,145.48
2022-09-06T02:43:49.488Z,131.00
2022-09-06T02:46:16.343Z,124.03
2022-09-06T02:48:43.200Z,118.80
2022-09-06T02:51:09.939Z,136.50
2022-09-06T02:53:37.624Z,123.70
2022-09-06T02:56:05.010Z,140.53
2022-09-06T02:58:31.898Z,131.48
2022-09-06T03:00:58.994Z,131.43
2022-09-06T03:03:27.401Z,136.65
2022-09-06T03:05:54.806Z,120.85
2022-09-06T03:08:25.539Z,143.10
2022-09-06T03:10:56.803Z,125.30
2022-09-06T03:13:24.710Z,122.68
2022-09-06T03:15:53.248Z,123.57
2022-09-06T03:18:20.477Z,122.70
2022-09-06T03:20:50.067Z,114.13
2022-09-06T03:23:18.398Z,136.30
2022-09-06T03:25:45.213Z,130.50
2022-09-06T03:28:12.816Z,113.43
2022-09-06T03:30:40.158Z,136.97
2022-09-06T03:33:07.285Z,124.82
2022-09-06T03:35:34.054Z,122.35
2022-09-06T03:38:00.824Z,135.80
2022-09-06T03:40:27.526Z,100.82
2022-09-06T03:42:54.412Z,127.28
2022-09-06T03:45:21.197Z,102.47
2022-09-06T03:47:48.061Z,122.50
2022-09-06T03:50:14.946Z,112.82
2022-09-06T03:52:41.671Z,112.03
2022-09-06T04:06:49.733Z,149.82
2022-09-06T04:09:16.796Z,141.73
2022-09-06T04:11:45.105Z,124.50
2022-09-06T04:14:12.286Z,128.35
2022-09-06T04:16:39.144Z,139.82
2022-09-06T04:19:05.987Z,115.67
2022-09-06T04:21:33.375Z,148.15
2022-09-06T04:24:00.182Z,150.93
2022-09-06T04:26:26.942Z,147.07
2022-09-06T04:28:53.710Z,60.58
2022-09-06T04:31:20.458Z,73.95
2022-09-06T04:33:47.467Z,55.60
2022-09-06T04:36:14.245Z,71.10
2022-09-06T04:38:43.513Z,78.80
2022-09-06T04:41:12.992Z,119.68
2022-09-06T04:43:39.848Z,117.87
2022-09-06T04:46:24.897Z,128.50
2022-09-06T04:48:53.099Z,141.00
2022-09-06T04:51:20.688Z,133.88
2022-09-06T04:53:48.401Z,122.93
2022-09-06T04:56:18.274Z,81.78
2022-09-06T04:58:46.659Z,58.53
2022-09-06T05:01:14.013Z,58.75
2022-09-06T05:03:41.083Z,74.82
2022-09-06T05:06:22.217Z,82.43
2022-09-06T05:08:49.119Z,59.78
2022-09-06T05:11:17.586Z,68.15
2022-09-06T05:13:46.181Z,82.22
2022-09-06T05:16:13.085Z,57.90
2022-09-06T05:18:39.915Z,81.15
2022-09-06T05:21:07.570Z,70.28
2022-09-06T05:23:34.689Z,86.63
2022-09-06T05:26:01.689Z,67.80
2022-09-06T05:28:28.664Z,81.05
2022-09-06T05:31:23.520Z,69.57
2022-09-06T05:33:52.063Z,74.47
2022-09-06T05:36:18.820Z,63.97
2022-09-06T05:38:45.620Z,55.47
2022-09-06T05:41:12.380Z,73.15
2022-09-06T05:43:39.227Z,76.00
2022-09-06T05:46:06.600Z,81.15
2022-09-06T05:48:36.967Z,64.70
2022-09-06T05:51:09.706Z,78.40
2022-09-06T05:53:42.554Z,72.70
2022-09-06T05:56:11.886Z,71.18
2022-09-06T05:58:40.229Z,76.93
2022-09-06T06:01:23.792Z,78.93
2022-09-06T06:03:56.954Z,83.65
2022-09-06T06:06:24.788Z,78.87
2022-09-06T06:08:52.060Z,66.55
2022-09-06T06:11:19.480Z,33.67
2022-09-06T06:13:46.633Z,49.35
2022-09-06T06:16:16.176Z,47.78
2022-09-06T06:18:46.752Z,60.80
2022-09-06T06:21:23.262Z,43.20
2022-09-06T06:23:52.707Z,36.00
2022-09-06T06:26:20.097Z,23.58
2022-09-06T06:28:47.050Z,51.80
2022-09-06T06:31:14.579Z,29.52
2022-09-06T06:33:42.604Z,39.05
2022-09-06T06:36:15.570Z,37.00
2022-09-06T06:38:45.291Z,26.13
2022-09-06T06:41:14.428Z,23.33
2022-09-06T06:43:41.327Z,6.53
2022-09-06T06:46:13.939Z,6.73
2022-09-06T06:48:42.026Z,8.30
2022-09-06T06:51:15.404Z,14.85
2022-09-06T06:53:43.551Z,34.72
2022-09-06T06:56:33.729Z,30.48
2022-09-06T06:59:02.728Z,23.05
2022-09-06T07:01:31.179Z,20.92
2022-09-06T07:03:58.255Z,35.58
2022-09-06T07:09:18.626Z,23.40
2022-09-06T07:11:46.235Z,22.27
2022-09-06T07:14:13.037Z,30.85
2022-09-06T07:16:39.897Z,28.77
2022-09-06T07:19:07.120Z,38.08
2022-09-06T07:21:37.158Z,33.80
2022-09-06T07:24:08.418Z,29.73
2022-09-06T07:26:38.187Z,35.50
2022-09-06T07:29:06.288Z,40.22
2022-09-06T07:34:21.925Z,40.95
2022-09-06T07:36:49.494Z,40.13
2022-09-06T07:39:16.234Z,43.92
2022-09-06T07:41:43.118Z,33.65
2022-09-06T07:44:10.268Z,28.00
2022-09-06T07:46:37.507Z,44.20
2022-09-06T07:49:05.410Z,37.80
2022-09-06T07:51:32.674Z,36.63
2022-09-06T07:54:34.644Z,33.30
2022-09-06T07:56:48.313Z,33.35
2022-09-06T07:59:15.279Z,47.42
2022-09-06T08:01:42.508Z,33.33
2022-09-06T08:04:12.750Z,30.88
2022-09-06T08:09:28.355Z,29.58
2022-09-06T08:11:55.084Z,31.73
2022-09-06T08:14:21.913Z,27.27
2022-09-06T08:16:50.155Z,36.88
2022-09-06T08:19:18.235Z,34.53
2022-09-06T08:21:45.055Z,35.72
2022-09-06T08:24:11.826Z,35.65
2022-09-06T08:26:40.439Z,39.17
2022-09-06T08:29:08.833Z,27.02
2022-09-06T08:31:38.334Z,25.70
2022-09-06T08:34:05.746Z,37.50
2022-09-06T08:36:33.194Z,30.33
2022-09-06T08:39:01.881Z,40.30
2022-09-06T08:41:40.448Z,35.33
2022-09-06T08:47:22.438Z,44.58
2022-09-06T08:50:01.170Z,83.50
2022-09-06T08:53:16.795Z,111.25
2022-09-06T08:56:04.286Z,73.93
2022-09-06T08:58:36.822Z,54.30
2022-09-06T09:01:12.523Z,61.75
2022-09-06T09:03:42.344Z,70.35
2022-09-06T09:06:10.294Z,82.78
2022-09-06T09:08:40.002Z,73.10
2022-09-06T09:11:12.011Z,87.40
2022-09-06T09:13:47.591Z,81.00
2022-09-06T09:16:18.171Z,78.85
2022-09-06T09:18:49.089Z,91.25
2022-09-06T09:21:20.724Z,88.10
2022-09-06T09:23:54.396Z,84.70
2022-09-06T09:26:24.105Z,103.13
2022-09-06T09:29:03.841Z,85.63
2022-09-06T09:31:42.346Z,132.55
2022-09-06T09:34:14.687Z,140.00
2022-09-06T09:39:36.640Z,164.98
2022-09-06T09:42:03.727Z,144.80
2022-09-06T09:44:30.706Z,153.60
2022-09-06T09:46:57.550Z,187.68
2022-09-06T09:49:24.948Z,163.67
2022-09-06T09:52:12.892Z,178.15
2022-09-06T09:54:44.824Z,190.83
2022-09-06T09:57:17.312Z,178.13
2022-09-06T09:59:44.528Z,174.57
2022-09-06T10:02:30.546Z,172.00
2022-09-06T10:05:09.256Z,234.53
2022-09-06T10:07:44.274Z,252.30
2022-09-06T10:10:20.988Z,182.88
2022-09-06T10:12:48.212Z,191.63
2022-09-06T10:15:38.427Z,192.80
2022-09-06T10:18:05.542Z,195.10
2022-09-06T10:20:39.595Z,209.05
2022-09-06T10:26:09.715Z,224.27
2022-09-06T10:28:45.323Z,208.85
2022-09-06T10:31:43.355Z,242.87
2022-09-06T10:34:36.791Z,257.67
2022-09-06T10:37:26.271Z,217.90
2022-09-06T10:40:02.860Z,264.92
2022-09-06T10:42:30.249Z,264.45
2022-09-06T10:45:36.089Z,254.35
2022-09-06T10:48:25.873Z,270.73
2022-09-06T10:51:13.615Z,163.13
2022-09-06T10:53:44.115Z,152.95
2022-09-06T10:56:32.477Z,159.23
2022-09-06T11:02:16.660Z,174.65
2022-09-06T11:07:40.207Z,174.27
2022-09-06T11:10:18.774Z,197.40
2022-09-06T11:13:03.033Z,169.70
2022-09-06T11:15:36.127Z,190.20
2022-09-06T11:18:21.035Z,178.47
2022-09-06T11:21:25.263Z,171.38
2022-09-06T11:24:04.931Z,188.18
2022-09-06T11:26:58.734Z,186.45
2022-09-06T11:29:30.878Z,186.38
2022-09-06T11:32:17.090Z,200.73
2022-09-06T11:35:01.129Z,211.35
2022-09-06T11:37:33.358Z,213.70
2022-09-06T11:40:32.622Z,183.68
2022-09-06T11:43:03.068Z,190.98
2022-09-06T11:45:43.713Z,227.43
2022-09-06T11:48:26.516Z,253.70
2022-09-06T11:50:54.328Z,259.77
2022-09-06T11:53:31.767Z,285.83
2022-09-06T11:56:02.629Z,254.00
2022-09-06T11:58:57.634Z,226.10
2022-09-06T12:01:24.937Z,238.02
2022-09-06T12:04:09.527Z,204.52
2022-09-06T12:06:41.551Z,215.52
2022-09-06T12:09:46.139Z,265.58
2022-09-06T12:12:44.327Z,267.00
2022-09-06T12:15:26.254Z,419.97
2022-09-06T12:17:53.409Z,438.08
2022-09-06T12:20:51.019Z,442.98
2022-09-06T12:23:41.676Z,497.25
2022-09-06T12:26:10.332Z,567.25
2022-09-06T12:28:49.624Z,406.77
2022-09-06T12:31:23.850Z,401.20
2022-09-06T12:33:52.386Z,590.08
2022-09-06T12:36:33.146Z,321.25
2022-09-06T12:39:04.807Z,355.07
2022-09-06T12:41:41.742Z,380.42
2022-09-06T12:44:11.184Z,391.63
2022-09-06T12:46:39.889Z,377.97
2022-09-06T12:49:10.084Z,305.17
2022-09-06T12:51:39.834Z,298.98
2022-09-06T12:54:22.627Z,276.25
2022-09-06T12:56:51.689Z,314.50
2022-09-06T12:59:25.060Z,242.52
2022-09-06T13:02:00.379Z,279.27
2022-09-06T13:04:49.896Z,352.10
2022-09-06T13:07:20.400Z,354.95
2022-09-06T13:09:50.920Z,359.55
2022-09-06T13:12:33.244Z,382.35
2022-09-06T13:15:17.762Z,393.80
2022-09-06T13:17:46.335Z,280.65
2022-09-06T13:20:29.588Z,276.83
2022-09-06T13:23:12.347Z,286.80
2022-09-06T13:25:53.570Z,287.80
2022-09-06T13:28:38.818Z,289.08
2022-09-06T13:31:20.581Z,276.48
2022-09-06T13:33:59.821Z,277.02
2022-09-06T13:36:30.943Z,240.70
2022-09-06T13:38:59.605Z,212.75
2022-09-06T13:41:26.784Z,200.07
2022-09-06T13:44:06.049Z,233.82
2022-09-06T13:46:33.810Z,263.47
2022-09-06T13:49:01.141Z,282.60
2022-09-06T13:51:29.739Z,267.95
2022-09-06T13:54:08.927Z,264.02
2022-09-06T13:56:36.264Z,270.67
2022-09-06T13:59:04.149Z,267.80
2022-09-06T14:01:32.926Z,260.08
2022-09-06T14:04:00.268Z,248.40
2022-09-06T14:06:27.903Z,253.20
2022-09-06T14:09:06.745Z,256.63
2022-09-06T14:11:35.214Z,251.48
2022-09-06T14:14:02.624Z,184.10
2022-09-06T14:16:30.106Z,183.30
2022-09-06T14:18:57.502Z,197.47
2022-09-06T14:21:24.765Z,190.52
2022-09-06T14:23:52.563Z,189.18
2022-09-06T14:26:21.662Z,203.68
2022-09-06T14:28:48.837Z,171.97
2022-09-06T14:31:21.365Z,210.23
2022-09-06T14:33:48.910Z,198.45
2022-09-06T14:36:19.008Z,193.30
2022-09-06T14:38:46.396Z,164.95
2022-09-06T14:41:14.834Z,165.13
2022-09-06T14:43:43.307Z,146.13
2022-09-06T14:46:13.692Z,137.02
2022-09-06T14:48:42.536Z,136.83
2022-09-06T14:51:12.851Z,136.43
2022-09-06T14:53:41.486Z,131.77
2022-09-06T14:56:10.484Z,148.68
2022-09-06T14:58:38.755Z,152.30
2022-09-06T15:01:13.102Z,156.23
2022-09-06T15:03:46.719Z,149.43
2022-09-06T15:06:14.417Z,152.82
2022-09-06T15:08:42.909Z,143.00
2022-09-06T15:11:11.118Z,153.25
2022-09-06T15:13:40.161Z,155.07
2022-09-06T15:16:08.519Z,150.98
2022-09-06T15:18:36.459Z,148.60
2022-09-06T15:21:14.342Z,145.35
2022-09-06T15:23:42.951Z,152.48
2022-09-06T15:26:11.989Z,157.82
2022-09-06T15:28:39.674Z,133.40
2022-09-06T15:31:07.443Z,153.15
2022-09-06T15:33:37.020Z,152.63
2022-09-06T15:36:08.274Z,150.32
2022-09-06T15:38:41.411Z,144.03
2022-09-06T15:41:12.867Z,142.35
2022-09-06T15:43:42.206Z,135.35
2022-09-06T15:46:09.904Z,139.33
2022-09-06T15:48:41.451Z,130.15
2022-09-06T15:51:08.845Z,152.10
2022-09-06T15:53:36.550Z,173.60
2022-09-06T15:56:04.379Z,183.38
2022-09-06T15:58:32.246Z,152.82
2022-09-06T16:01:07.964Z,198.40
2022-09-06T16:03:49.739Z,210.30
2022-09-06T16:06:26.234Z,175.20
2022-09-06T16:09:00.267Z,174.85
2022-09-06T16:11:28.398Z,267.08
2022-09-06T16:13:56.177Z,270.05
2022-09-06T16:16:23.657Z,66.55
2022-09-06T16:18:52.253Z,99.63
2022-09-06T16:21:24.375Z,94.75
2022-09-06T16:23:54.254Z,120.65
2022-09-06T16:26:23.099Z,241.73
2022-09-06T16:28:51.521Z,136.93
2022-09-06T16:31:19.551Z,147.13
2022-09-06T16:33:48.676Z,206.15
2022-09-06T16:36:15.894Z,157.52
2022-09-06T16:38:43.623Z,152.38
2022-09-06T16:41:41.136Z,166.25
2022-09-06T16:44:09.747Z,146.43
2022-09-06T16:46:36.842Z,156.38
2022-09-06T16:49:04.475Z,135.20
2022-09-06T16:51:31.772Z,143.45
2022-09-06T16:53:59.547Z,129.88
2022-09-06T16:56:29.298Z,145.13
2022-09-06T16:58:58.568Z,165.05
2022-09-06T17:01:27.012Z,145.25
2022-09-06T17:03:54.262Z,177.30
2022-09-06T17:06:22.120Z,187.23
2022-09-06T17:08:49.534Z,117.88
2022-09-06T17:11:20.056Z,166.30
2022-09-06T17:13:48.809Z,140.35
2022-09-06T17:16:35.286Z,164.80
2022-09-06T17:19:03.122Z,171.68
2022-09-06T17:21:30.799Z,154.88
2022-09-06T17:24:02.974Z,155.35
2022-09-06T17:26:30.903Z,171.27
2022-09-06T17:28:57.978Z,166.45
2022-09-06T17:31:26.221Z,182.27
2022-09-06T17:33:53.980Z,129.88
2022-09-06T17:36:26.568Z,184.02
2022-09-06T17:39:06.989Z,187.93
2022-09-06T17:41:38.672Z,190.50
2022-09-06T17:44:07.630Z,192.98
2022-09-06T17:46:34.834Z,191.18
2022-09-06T17:49:01.886Z,181.43
2022-09-06T17:51:29.249Z,190.52
2022-09-06T17:53:56.835Z,210.85
2022-09-06T17:56:24.631Z,186.82
2022-09-06T17:58:56.096Z,143.13
2022-09-06T18:01:24.490Z,146.30
2022-09-06T18:03:52.087Z,152.13
2022-09-06T18:06:25.111Z,135.55
2022-09-06T18:08:54.434Z,134.68
2022-09-06T18:11:27.250Z,150.02
2022-09-06T18:13:56.571Z,139.30
2022-09-06T18:16:23.902Z,100.22
2022-09-06T18:18:53.228Z,129.80
2022-09-06T18:21:20.916Z,123.85
2022-09-06T18:23:47.864Z,100.25
2022-09-06T18:26:15.193Z,95.60
2022-09-06T18:28:42.098Z,125.03
2022-09-06T18:31:12.641Z,129.13
2022-09-06T18:33:40.609Z,110.93
2022-09-06T18:36:08.892Z,119.38
2022-09-06T18:38:36.591Z,119.50
2022-09-06T18:41:06.395Z,95.63
2022-09-06T18:43:41.654Z,91.22
2022-09-06T18:46:12.606Z,106.80
2022-09-06T18:48:40.597Z,97.85
2022-09-06T18:51:11.493Z,107.85
2022-09-06T18:53:43.990Z,107.90
2022-09-06T18:56:13.379Z,103.00
2022-09-06T18:58:40.866Z,86.18
2022-09-06T19:01:11.669Z,76.97
2022-09-06T19:03:40.283Z,96.75
2022-09-06T19:06:10.377Z,99.03
2022-09-06T19:08:37.685Z,83.28
2022-09-06T19:11:10.323Z,76.10
2022-09-06T19:13:39.348Z,79.03
2022-09-06T19:16:07.827Z,73.10
2022-09-06T19:18:36.078Z,58.75
2022-09-06T19:21:09.292Z,67.07
2022-09-06T19:23:38.913Z,58.80
2022-09-06T19:26:07.568Z,58.78
2022-09-06T19:28:35.588Z,58.25
2022-09-06T19:31:18.522Z,73.93
2022-09-06T19:33:48.365Z,82.93
2022-09-06T19:36:16.595Z,94.65
2022-09-06T19:41:31.534Z,89.47
2022-09-06T19:43:59.226Z,94.95
2022-09-06T19:46:27.502Z,60.88
2022-09-06T19:48:56.108Z,36.58
2022-09-06T19:51:24.228Z,34.85
2022-09-06T19:53:53.389Z,35.80
2022-09-06T19:56:26.867Z,57.97
2022-09-06T19:58:58.483Z,51.70
2022-09-06T20:01:29.119Z,56.08
2022-09-06T20:03:57.210Z,52.53
2022-09-06T20:06:24.513Z,45.10
2022-09-06T20:08:53.262Z,44.70
2022-09-06T20:11:22.307Z,88.65
2022-09-06T20:13:49.774Z,78.43
2022-09-06T20:16:20.260Z,87.73
2022-09-06T20:18:48.986Z,102.68
2022-09-06T20:21:18.390Z,83.40
2022-09-06T20:23:53.968Z,109.38
2022-09-06T20:26:23.684Z,124.38
2022-09-06T20:29:01.284Z,129.23
2022-09-06T20:31:30.003Z,92.05
2022-09-06T20:33:59.246Z,110.07
2022-09-06T20:36:26.758Z,118.28
2022-09-06T20:38:54.088Z,118.55
2022-09-06T20:41:26.140Z,128.68
2022-09-06T20:43:55.825Z,120.25
2022-09-06T20:46:24.877Z,154.70
2022-09-06T20:48:52.508Z,180.52
2022-09-06T20:51:22.633Z,148.73
2022-09-06T20:53:55.118Z,150.05
2022-09-06T20:56:24.879Z,184.43
2022-09-06T20:58:54.529Z,183.77
2022-09-06T21:01:24.985Z,181.73
2022-09-06T21:03:57.976Z,154.40
2022-09-06T21:06:26.334Z,170.38
2022-09-06T21:08:55.138Z,186.98
2022-09-06T21:11:22.709Z,165.40
2022-09-06T21:13:55.687Z,160.23
2022-09-06T21:16:25.060Z,148.60
2022-09-06T21:18:54.379Z,139.02
2022-09-06T21:21:22.335Z,162.48
2022-09-06T21:23:49.579Z,189.67
2022-09-06T21:26:17.083Z,233.18
2022-09-06T21:28:45.542Z,289.50
2022-09-06T21:31:13.548Z,344.70
2022-09-06T21:33:54.939Z,999.90
2022-09-06T21:36:24.181Z,977.08
2022-09-06T21:38:55.566Z,381.15
2022-09-06T21:41:23.528Z,233.30
2022-09-06T21:43:58.288Z,203.65
2022-09-06T21:46:32.658Z,208.68
2022-09-06T21:49:04.182Z,187.67
2022-09-06T21:51:32.378Z,177.68
2022-09-06T21:53:59.744Z,166.15
2022-09-06T21:56:26.842Z,132.82
2022-09-06T21:58:55.675Z,112.23
2022-09-06T22:01:34.799Z,114.57
2022-09-06T22:04:02.203Z,125.38
2022-09-06T22:06:31.362Z,121.63
2022-09-06T22:09:00.519Z,91.80
2022-09-06T22:11:30.812Z,108.03
2022-09-06T22:14:00.008Z,125.03
2022-09-06T22:16:29.305Z,139.32
2022-09-06T22:18:56.375Z,112.18
2022-09-06T22:21:23.699Z,135.13
2022-09-06T22:23:51.537Z,128.27
2022-09-06T22:26:19.169Z,116.27
2022-09-06T22:28:47.598Z,116.23
2022-09-06T22:31:14.585Z,118.60
2022-09-06T22:33:41.494Z,114.63
2022-09-06T22:36:10.254Z,95.93
2022-09-06T22:38:37.471Z,111.75
2022-09-06T22:41:04.901Z,95.47
2022-09-06T22:43:32.218Z,97.82
2022-09-06T22:46:07.020Z,108.03
2022-09-06T22:48:35.371Z,110.90
2022-09-06T22:51:03.860Z,96.55
2022-09-06T22:53:31.688Z,67.60
2022-09-06T22:55:58.807Z,82.63
2022-09-06T22:58:29.591Z,87.50
2022-09-06T23:01:04.505Z,74.65
2022-09-06T23:03:31.450Z,92.40
2022-09-06T23:06:02.591Z,80.85
2022-09-06T23:08:30.359Z,82.50
2022-09-06T23:10:57.242Z,96.53
2022-09-06T23:13:25.115Z,86.53
2022-09-06T23:15:52.447Z,88.95
2022-09-06T23:18:19.470Z,87.90
2022-09-06T23:20:46.250Z,109.78
2022-09-06T23:23:13.670Z,97.47
2022-09-06T23:25:40.685Z,107.88
2022-09-06T23:28:07.592Z,103.45
2022-09-06T23:30:37.752Z,108.63
2022-09-06T23:33:04.800Z,86.87
2022-09-06T23:35:31.594Z,87.43
2022-09-06T23:37:58.566Z,97.28
2022-09-06T23:40:25.368Z,111.40
2022-09-06T23:42:52.180Z,104.97
2022-09-06T23:45:19.381Z,103.07
2022-09-06T23:47:46.720Z,90.10
2022-09-06T23:50:13.542Z,103.68
2022-09-06T23:52:41.121Z,116.90
2022-09-06T23:55:09.307Z,100.87
2022-09-06T23:57:36.735Z,99.78
